sensor_id;sensor_type;location;lat;lon;timestamp;temperature;humidity
6244;DHT22;3155;49.940;8.450;2023-05-07T00:02:01;14.30;1.00
6244;DHT22;3155;49.940;8.450;2023-05-07T00:04:27;14.20;1.00
6244;DHT22;3155;49.940;8.450;2023-05-07T00:06:55;14.10;44.40
6244;DHT22;3155;49.940;8.450;2023-05-07T00:09:24;14.00;99.90
6244;DHT22;3155;49.940;8.450;2023-05-07T00:11:50;14.00;99.90
6244;DHT22;3155;49.940;8.450;2023-05-07T00:14:18;14.00;99.90
6244;DHT22;3155;49.940;8.450;2023-05-07T00:16:47;13.90;99.90
6244;DHT22;3155;49.940;8.450;2023-05-07T00:19:14;13.80;99.90
6244;DHT22;3155;49.940;8.450;2023-05-07T00:21:40;13.80;99.90
6244;DHT22;3155;49.940;8.450;2023-05-07T00:24:07;13.80;99.90
6244;DHT22;3155;49.940;8.450;2023-05-07T00:26:34;13.80;99.90
6244;DHT22;3155;49.940;8.450;2023-05-07T00:29:00;13.70;99.90
6244;DHT22;3155;49.940;8.450;2023-05-07T00:31:27;13.70;99.90
6244;DHT22;3155;49.940;8.450;2023-05-07T00:33:57;13.70;99.90
6244;DHT22;3155;49.940;8.450;2023-05-07T00:36:26;13.70;1.00
6244;DHT22;3155;49.940;8.450;2023-05-07T00:38:57;13.70;1.00
6244;DHT22;3155;49.940;8.450;2023-05-07T00:41:25;13.70;1.00
6244;DHT22;3155;49.940;8.450;2023-05-07T00:43:52;13.70;99.90
6244;DHT22;3155;49.940;8.450;2023-05-07T00:46:22;13.80;99.90
6244;DHT22;3155;49.940;8.450;2023-05-07T00:48:53;13.80;99.90
6244;DHT22;3155;49.940;8.450;2023-05-07T00:51:20;13.80;99.90
6244;DHT22;3155;49.940;8.450;2023-05-07T00:53:47;13.80;99.90
6244;DHT22;3155;49.940;8.450;2023-05-07T00:56:14;13.80;99.90
6244;DHT22;3155;49.940;8.450;2023-05-07T00:58:41;13.80;99.90
6244;DHT22;3155;49.940;8.450;2023-05-07T01:01:11;13.80;99.90
6244;DHT22;3155;49.940;8.450;2023-05-07T01:03:38;13.80;99.90
6244;DHT22;3155;49.940;8.450;2023-05-07T01:06:07;13.80;99.90
6244;DHT22;3155;49.940;8.450;2023-05-07T01:08:39;13.90;99.90
6244;DHT22;3155;49.940;8.450;2023-05-07T01:11:07;13.90;99.90
6244;DHT22;3155;49.940;8.450;2023-05-07T01:13:35;13.90;99.90
6244;DHT22;3155;49.940;8.450;2023-05-07T01:16:04;13.90;99.90
6244;DHT22;3155;49.940;8.450;2023-05-07T01:18:33;13.90;99.90
6244;DHT22;3155;49.940;8.450;2023-05-07T01:21:02;14.00;99.90
6244;DHT22;3155;49.940;8.450;2023-05-07T01:23:31;14.00;99.90
6244;DHT22;3155;49.940;8.450;2023-05-07T01:25:59;14.00;99.90
6244;DHT22;3155;49.940;8.450;2023-05-07T01:28:26;14.00;99.90
6244;DHT22;3155;49.940;8.450;2023-05-07T01:30:55;14.00;99.90
6244;DHT22;3155;49.940;8.450;2023-05-07T01:33:23;14.00;99.90
6244;DHT22;3155;49.940;8.450;2023-05-07T01:35:53;14.10;99.90
6244;DHT22;3155;49.940;8.450;2023-05-07T01:38:21;14.00;99.90
6244;DHT22;3155;49.940;8.450;2023-05-07T01:40:49;14.00;99.90
6244;DHT22;3155;49.940;8.450;2023-05-07T01:43:16;14.00;99.90
6244;DHT22;3155;49.940;8.450;2023-05-07T01:45:44;13.90;99.90
6244;DHT22;3155;49.940;8.450;2023-05-07T01:48:12;13.90;99.90
6244;DHT22;3155;49.940;8.450;2023-05-07T01:50:41;13.90;99.90
6244;DHT22;3155;49.940;8.450;2023-05-07T01:53:11;13.90;99.90
6244;DHT22;3155;49.940;8.450;2023-05-07T01:55:38;13.90;99.90
6244;DHT22;3155;49.940;8.450;2023-05-07T01:58:05;14.00;99.90
6244;DHT22;3155;49.940;8.450;2023-05-07T02:00:31;14.00;99.90
6244;DHT22;3155;49.940;8.450;2023-05-07T02:03:00;14.00;99.90
6244;DHT22;3155;49.940;8.450;2023-05-07T02:05:27;14.10;99.90
6244;DHT22;3155;49.940;8.450;2023-05-07T02:07:54;14.10;99.90
6244;DHT22;3155;49.940;8.450;2023-05-07T02:10:20;14.10;99.90
6244;DHT22;3155;49.940;8.450;2023-05-07T02:12:47;14.00;99.90
6244;DHT22;3155;49.940;8.450;2023-05-07T02:15:14;14.00;99.90
6244;DHT22;3155;49.940;8.450;2023-05-07T02:18:01;14.00;99.90
6244;DHT22;3155;49.940;8.450;2023-05-07T02:20:29;14.00;99.90
6244;DHT22;3155;49.940;8.450;2023-05-07T02:22:55;14.00;99.90
6244;DHT22;3155;49.940;8.450;2023-05-07T02:25:25;14.00;99.90
6244;DHT22;3155;49.940;8.450;2023-05-07T02:27:52;14.00;99.90
6244;DHT22;3155;49.940;8.450;2023-05-07T02:30:19;14.00;99.90
6244;DHT22;3155;49.940;8.450;2023-05-07T02:32:50;14.00;99.90
6244;DHT22;3155;49.940;8.450;2023-05-07T02:35:17;14.00;99.90
6244;DHT22;3155;49.940;8.450;2023-05-07T02:37:44;14.00;99.90
6244;DHT22;3155;49.940;8.450;2023-05-07T02:40:11;14.00;99.90
6244;DHT22;3155;49.940;8.450;2023-05-07T02:42:38;14.10;99.90
6244;DHT22;3155;49.940;8.450;2023-05-07T02:45:08;14.10;99.90
6244;DHT22;3155;49.940;8.450;2023-05-07T02:47:35;14.10;64.50
6244;DHT22;3155;49.940;8.450;2023-05-07T02:50:03;14.20;21.50
6244;DHT22;3155;49.940;8.450;2023-05-07T02:52:30;14.20;1.00
6244;DHT22;3155;49.940;8.450;2023-05-07T02:54:57;14.20;1.00
6244;DHT22;3155;49.940;8.450;2023-05-07T02:57:24;14.20;1.00
6244;DHT22;3155;49.940;8.450;2023-05-07T02:59:51;14.20;1.00
6244;DHT22;3155;49.940;8.450;2023-05-07T03:02:18;14.20;1.00
6244;DHT22;3155;49.940;8.450;2023-05-07T03:04:45;14.20;1.00
6244;DHT22;3155;49.940;8.450;2023-05-07T03:07:11;14.20;1.00
6244;DHT22;3155;49.940;8.450;2023-05-07T03:09:41;14.20;1.00
6244;DHT22;3155;49.940;8.450;2023-05-07T03:12:08;14.20;1.00
6244;DHT22;3155;49.940;8.450;2023-05-07T03:14:35;14.20;1.00
6244;DHT22;3155;49.940;8.450;2023-05-07T03:17:04;14.10;1.00
6244;DHT22;3155;49.940;8.450;2023-05-07T03:19:31;14.10;1.00
6244;DHT22;3155;49.940;8.450;2023-05-07T03:22:00;14.10;1.00
6244;DHT22;3155;49.940;8.450;2023-05-07T03:24:27;14.20;1.00
6244;DHT22;3155;49.940;8.450;2023-05-07T03:26:57;14.20;1.00
6244;DHT22;3155;49.940;8.450;2023-05-07T03:29:24;14.20;1.00
6244;DHT22;3155;49.940;8.450;2023-05-07T03:31:50;14.10;1.00
6244;DHT22;3155;49.940;8.450;2023-05-07T03:34:17;14.20;1.00
6244;DHT22;3155;49.940;8.450;2023-05-07T03:36:49;14.20;1.00
6244;DHT22;3155;49.940;8.450;2023-05-07T03:39:15;14.10;1.00
6244;DHT22;3155;49.940;8.450;2023-05-07T03:41:42;14.10;1.00
6244;DHT22;3155;49.940;8.450;2023-05-07T03:44:09;14.10;1.00
6244;DHT22;3155;49.940;8.450;2023-05-07T03:46:35;14.10;1.00
6244;DHT22;3155;49.940;8.450;2023-05-07T03:49:02;14.10;1.00
6244;DHT22;3155;49.940;8.450;2023-05-07T03:51:30;14.00;1.00
6244;DHT22;3155;49.940;8.450;2023-05-07T03:53:57;14.00;1.00
6244;DHT22;3155;49.940;8.450;2023-05-07T03:56:23;14.00;1.00
6244;DHT22;3155;49.940;8.450;2023-05-07T03:58:53;13.90;1.00
6244;DHT22;3155;49.940;8.450;2023-05-07T04:01:19;13.90;1.00
6244;DHT22;3155;49.940;8.450;2023-05-07T04:03:46;13.90;1.00
6244;DHT22;3155;49.940;8.450;2023-05-07T04:06:15;13.90;2.40
6244;DHT22;3155;49.940;8.450;2023-05-07T04:08:42;13.90;1.00
6244;DHT22;3155;49.940;8.450;2023-05-07T04:11:08;13.90;1.00
6244;DHT22;3155;49.940;8.450;2023-05-07T04:13:37;14.00;1.00
6244;DHT22;3155;49.940;8.450;2023-05-07T04:16:05;14.10;1.00
6244;DHT22;3155;49.940;8.450;2023-05-07T04:18:32;14.10;99.90
6244;DHT22;3155;49.940;8.450;2023-05-07T04:20:58;14.20;99.90
6244;DHT22;3155;49.940;8.450;2023-05-07T04:23:28;14.30;1.00
6244;DHT22;3155;49.940;8.450;2023-05-07T04:25:54;14.30;99.90
6244;DHT22;3155;49.940;8.450;2023-05-07T04:28:21;14.30;99.90
6244;DHT22;3155;49.940;8.450;2023-05-07T04:30:51;14.30;64.60
6244;DHT22;3155;49.940;8.450;2023-05-07T04:33:18;14.40;1.00
6244;DHT22;3155;49.940;8.450;2023-05-07T04:35:45;14.40;99.90
6244;DHT22;3155;49.940;8.450;2023-05-07T04:38:12;14.40;99.90
6244;DHT22;3155;49.940;8.450;2023-05-07T04:40:39;14.40;99.90
6244;DHT22;3155;49.940;8.450;2023-05-07T04:43:06;14.40;4.40
6244;DHT22;3155;49.940;8.450;2023-05-07T04:45:36;14.40;31.30
6244;DHT22;3155;49.940;8.450;2023-05-07T04:48:06;14.40;1.00
6244;DHT22;3155;49.940;8.450;2023-05-07T04:50:34;14.40;1.00
6244;DHT22;3155;49.940;8.450;2023-05-07T04:53:00;14.40;1.00
6244;DHT22;3155;49.940;8.450;2023-05-07T04:55:27;14.40;99.90
6244;DHT22;3155;49.940;8.450;2023-05-07T04:57:54;14.50;99.90
6244;DHT22;3155;49.940;8.450;2023-05-07T05:00:21;14.50;99.90
6244;DHT22;3155;49.940;8.450;2023-05-07T05:02:50;14.60;1.00
6244;DHT22;3155;49.940;8.450;2023-05-07T05:05:17;14.70;99.90
6244;DHT22;3155;49.940;8.450;2023-05-07T05:07:43;14.70;1.00
6244;DHT22;3155;49.940;8.450;2023-05-07T05:10:10;14.90;1.00
6244;DHT22;3155;49.940;8.450;2023-05-07T05:12:37;14.90;99.90
6244;DHT22;3155;49.940;8.450;2023-05-07T05:15:05;15.10;1.00
6244;DHT22;3155;49.940;8.450;2023-05-07T05:17:32;15.10;1.00
6244;DHT22;3155;49.940;8.450;2023-05-07T05:20:01;15.20;99.90
6244;DHT22;3155;49.940;8.450;2023-05-07T05:22:33;15.30;99.90
6244;DHT22;3155;49.940;8.450;2023-05-07T05:25:00;15.40;1.00
6244;DHT22;3155;49.940;8.450;2023-05-07T05:27:28;15.50;1.00
6244;DHT22;3155;49.940;8.450;2023-05-07T05:29:55;15.60;99.90
6244;DHT22;3155;49.940;8.450;2023-05-07T05:32:21;15.70;99.90
6244;DHT22;3155;49.940;8.450;2023-05-07T05:34:48;15.80;99.90
6244;DHT22;3155;49.940;8.450;2023-05-07T05:37:15;15.80;99.90
6244;DHT22;3155;49.940;8.450;2023-05-07T05:39:42;15.90;99.90
6244;DHT22;3155;49.940;8.450;2023-05-07T05:42:09;16.00;99.90
6244;DHT22;3155;49.940;8.450;2023-05-07T05:44:36;16.10;99.80
6244;DHT22;3155;49.940;8.450;2023-05-07T05:47:03;16.10;64.40
6244;DHT22;3155;49.940;8.450;2023-05-07T05:49:33;16.10;27.30
6244;DHT22;3155;49.940;8.450;2023-05-07T05:52:00;16.10;24.40
6244;DHT22;3155;49.940;8.450;2023-05-07T05:54:27;16.10;21.30
6244;DHT22;3155;49.940;8.450;2023-05-07T05:56:53;16.20;20.70
6244;DHT22;3155;49.940;8.450;2023-05-07T05:59:20;16.40;1.00
6244;DHT22;3155;49.940;8.450;2023-05-07T06:01:47;16.40;1.00
6244;DHT22;3155;49.940;8.450;2023-05-07T06:04:14;16.60;1.00
6244;DHT22;3155;49.940;8.450;2023-05-07T06:06:41;16.90;1.00
6244;DHT22;3155;49.940;8.450;2023-05-07T06:09:08;17.10;1.00
6244;DHT22;3155;49.940;8.450;2023-05-07T06:11:34;17.20;1.00
6244;DHT22;3155;49.940;8.450;2023-05-07T06:14:01;17.20;1.00
6244;DHT22;3155;49.940;8.450;2023-05-07T06:16:28;17.10;1.00
6244;DHT22;3155;49.940;8.450;2023-05-07T06:18:58;17.10;99.90
6244;DHT22;3155;49.940;8.450;2023-05-07T06:21:27;16.90;1.00
6244;DHT22;3155;49.940;8.450;2023-05-07T06:23:54;16.80;1.00
6244;DHT22;3155;49.940;8.450;2023-05-07T06:26:21;16.70;1.00
6244;DHT22;3155;49.940;8.450;2023-05-07T06:28:48;16.80;1.00
6244;DHT22;3155;49.940;8.450;2023-05-07T06:31:20;16.80;1.00
6244;DHT22;3155;49.940;8.450;2023-05-07T06:33:47;17.00;1.00
6244;DHT22;3155;49.940;8.450;2023-05-07T06:36:18;17.20;1.00
6244;DHT22;3155;49.940;8.450;2023-05-07T06:38:44;17.10;1.00
6244;DHT22;3155;49.940;8.450;2023-05-07T06:41:11;17.30;1.00
6244;DHT22;3155;49.940;8.450;2023-05-07T06:43:38;17.40;99.90
6244;DHT22;3155;49.940;8.450;2023-05-07T06:46:05;17.60;99.90
6244;DHT22;3155;49.940;8.450;2023-05-07T06:48:31;17.70;99.90
6244;DHT22;3155;49.940;8.450;2023-05-07T06:51:01;17.70;99.90
6244;DHT22;3155;49.940;8.450;2023-05-07T06:53:30;17.70;99.90
6244;DHT22;3155;49.940;8.450;2023-05-07T06:56:00;17.70;99.90
6244;DHT22;3155;49.940;8.450;2023-05-07T06:58:27;17.50;99.90
6244;DHT22;3155;49.940;8.450;2023-05-07T07:00:53;17.60;99.90
6244;DHT22;3155;49.940;8.450;2023-05-07T07:03:20;17.70;99.90
6244;DHT22;3155;49.940;8.450;2023-05-07T07:05:47;17.70;99.90
6244;DHT22;3155;49.940;8.450;2023-05-07T07:08:13;17.90;99.90
6244;DHT22;3155;49.940;8.450;2023-05-07T07:10:41;17.90;99.90
6244;DHT22;3155;49.940;8.450;2023-05-07T07:13:10;17.80;99.90
6244;DHT22;3155;49.940;8.450;2023-05-07T07:15:36;17.80;99.90
6244;DHT22;3155;49.940;8.450;2023-05-07T07:18:04;17.80;99.90
6244;DHT22;3155;49.940;8.450;2023-05-07T07:20:31;17.70;99.90
6244;DHT22;3155;49.940;8.450;2023-05-07T07:22:57;17.70;99.90
6244;DHT22;3155;49.940;8.450;2023-05-07T07:25:24;17.70;99.90
6244;DHT22;3155;49.940;8.450;2023-05-07T07:27:51;17.70;99.90
6244;DHT22;3155;49.940;8.450;2023-05-07T07:30:18;17.60;99.90
6244;DHT22;3155;49.940;8.450;2023-05-07T07:32:44;17.70;99.90
6244;DHT22;3155;49.940;8.450;2023-05-07T07:35:11;17.90;99.90
6244;DHT22;3155;49.940;8.450;2023-05-07T07:37:38;17.80;99.90
6244;DHT22;3155;49.940;8.450;2023-05-07T07:40:05;17.90;99.90
6244;DHT22;3155;49.940;8.450;2023-05-07T07:42:32;17.90;99.90
6244;DHT22;3155;49.940;8.450;2023-05-07T07:44:59;17.90;99.90
6244;DHT22;3155;49.940;8.450;2023-05-07T07:47:26;18.00;99.90
6244;DHT22;3155;49.940;8.450;2023-05-07T07:49:52;17.90;99.90
6244;DHT22;3155;49.940;8.450;2023-05-07T07:52:19;17.90;99.90
6244;DHT22;3155;49.940;8.450;2023-05-07T07:54:46;17.90;99.90
6244;DHT22;3155;49.940;8.450;2023-05-07T07:57:15;18.20;99.90
6244;DHT22;3155;49.940;8.450;2023-05-07T07:59:42;18.10;99.90
6244;DHT22;3155;49.940;8.450;2023-05-07T08:02:12;18.20;99.90
6244;DHT22;3155;49.940;8.450;2023-05-07T08:04:38;18.40;99.90
6244;DHT22;3155;49.940;8.450;2023-05-07T08:07:06;18.60;99.90
6244;DHT22;3155;49.940;8.450;2023-05-07T08:09:32;18.80;99.90
6244;DHT22;3155;49.940;8.450;2023-05-07T08:11:59;18.70;99.90
6244;DHT22;3155;49.940;8.450;2023-05-07T08:14:26;18.80;99.90
6244;DHT22;3155;49.940;8.450;2023-05-07T08:16:55;18.80;99.90
6244;DHT22;3155;49.940;8.450;2023-05-07T08:19:22;18.90;99.90
6244;DHT22;3155;49.940;8.450;2023-05-07T08:21:48;18.90;99.90
6244;DHT22;3155;49.940;8.450;2023-05-07T08:24:15;18.90;99.90
6244;DHT22;3155;49.940;8.450;2023-05-07T08:26:43;19.40;99.90
6244;DHT22;3155;49.940;8.450;2023-05-07T08:29:13;19.70;99.90
6244;DHT22;3155;49.940;8.450;2023-05-07T08:31:39;19.90;99.90
6244;DHT22;3155;49.940;8.450;2023-05-07T08:34:06;20.10;99.90
6244;DHT22;3155;49.940;8.450;2023-05-07T08:36:35;20.00;99.90
6244;DHT22;3155;49.940;8.450;2023-05-07T08:39:04;20.10;99.90
6244;DHT22;3155;49.940;8.450;2023-05-07T08:41:31;19.90;99.90
6244;DHT22;3155;49.940;8.450;2023-05-07T08:43:58;19.90;99.90
6244;DHT22;3155;49.940;8.450;2023-05-07T08:46:31;20.10;99.90
6244;DHT22;3155;49.940;8.450;2023-05-07T08:48:58;19.90;99.90
6244;DHT22;3155;49.940;8.450;2023-05-07T08:51:26;19.80;99.90
6244;DHT22;3155;49.940;8.450;2023-05-07T08:53:53;20.10;99.90
6244;DHT22;3155;49.940;8.450;2023-05-07T08:56:20;20.40;99.90
6244;DHT22;3155;49.940;8.450;2023-05-07T08:58:48;20.80;99.90
6244;DHT22;3155;49.940;8.450;2023-05-07T09:01:16;21.40;99.90
6244;DHT22;3155;49.940;8.450;2023-05-07T09:03:46;21.90;99.90
6244;DHT22;3155;49.940;8.450;2023-05-07T09:06:13;21.90;99.90
6244;DHT22;3155;49.940;8.450;2023-05-07T09:08:40;22.10;99.90
6244;DHT22;3155;49.940;8.450;2023-05-07T09:11:06;22.40;99.90
6244;DHT22;3155;49.940;8.450;2023-05-07T09:13:33;22.40;99.90
6244;DHT22;3155;49.940;8.450;2023-05-07T09:16:10;21.90;99.90
6244;DHT22;3155;49.940;8.450;2023-05-07T09:18:41;21.90;99.90
6244;DHT22;3155;49.940;8.450;2023-05-07T09:21:15;21.80;99.90
6244;DHT22;3155;49.940;8.450;2023-05-07T09:23:42;21.60;99.90
6244;DHT22;3155;49.940;8.450;2023-05-07T09:26:09;21.80;99.90
6244;DHT22;3155;49.940;8.450;2023-05-07T09:28:39;21.30;99.90
6244;DHT22;3155;49.940;8.450;2023-05-07T09:31:11;21.30;99.90
6244;DHT22;3155;49.940;8.450;2023-05-07T09:33:38;21.80;99.90
6244;DHT22;3155;49.940;8.450;2023-05-07T09:36:07;21.80;99.90
6244;DHT22;3155;49.940;8.450;2023-05-07T09:38:34;22.30;99.90
6244;DHT22;3155;49.940;8.450;2023-05-07T09:41:09;22.30;99.90
6244;DHT22;3155;49.940;8.450;2023-05-07T09:43:38;22.80;99.90
6244;DHT22;3155;49.940;8.450;2023-05-07T09:46:15;22.00;99.90
6244;DHT22;3155;49.940;8.450;2023-05-07T09:48:44;22.50;99.90
6244;DHT22;3155;49.940;8.450;2023-05-07T09:51:29;23.30;99.90
6244;DHT22;3155;49.940;8.450;2023-05-07T09:53:57;24.10;99.90
6244;DHT22;3155;49.940;8.450;2023-05-07T09:56:24;24.00;99.90
6244;DHT22;3155;49.940;8.450;2023-05-07T09:58:54;23.90;99.90
6244;DHT22;3155;49.940;8.450;2023-05-07T10:01:23;23.10;99.90
6244;DHT22;3155;49.940;8.450;2023-05-07T10:03:52;23.50;99.90
6244;DHT22;3155;49.940;8.450;2023-05-07T10:06:20;23.80;99.90
6244;DHT22;3155;49.940;8.450;2023-05-07T10:08:51;24.00;99.90
6244;DHT22;3155;49.940;8.450;2023-05-07T10:11:18;24.60;99.90
6244;DHT22;3155;49.940;8.450;2023-05-07T10:13:46;24.20;99.90
6244;DHT22;3155;49.940;8.450;2023-05-07T10:16:17;23.80;99.90
6244;DHT22;3155;49.940;8.450;2023-05-07T10:18:45;24.10;99.90
6244;DHT22;3155;49.940;8.450;2023-05-07T10:21:20;23.90;99.90
6244;DHT22;3155;49.940;8.450;2023-05-07T10:23:57;24.20;99.90
6244;DHT22;3155;49.940;8.450;2023-05-07T10:26:25;24.60;99.90
6244;DHT22;3155;49.940;8.450;2023-05-07T10:29:01;24.70;99.90
6244;DHT22;3155;49.940;8.450;2023-05-07T10:32:17;24.80;99.90
6244;DHT22;3155;49.940;8.450;2023-05-07T10:34:47;24.60;99.90
6244;DHT22;3155;49.940;8.450;2023-05-07T10:37:15;24.40;99.90
6244;DHT22;3155;49.940;8.450;2023-05-07T10:39:49;23.80;99.90
6244;DHT22;3155;49.940;8.450;2023-05-07T10:42:18;24.20;99.90
6244;DHT22;3155;49.940;8.450;2023-05-07T10:44:48;24.90;99.90
6244;DHT22;3155;49.940;8.450;2023-05-07T10:47:16;25.40;99.90
6244;DHT22;3155;49.940;8.450;2023-05-07T10:54:43;25.00;99.90
6244;DHT22;3155;49.940;8.450;2023-05-07T10:59:58;24.70;99.90
6244;DHT22;3155;49.940;8.450;2023-05-07T11:05:29;26.20;99.90
6244;DHT22;3155;49.940;8.450;2023-05-07T11:08:01;26.80;99.90
6244;DHT22;3155;49.940;8.450;2023-05-07T11:10:51;25.90;99.90
6244;DHT22;3155;49.940;8.450;2023-05-07T11:13:18;25.50;99.90
6244;DHT22;3155;49.940;8.450;2023-05-07T11:16:18;25.70;99.90
6244;DHT22;3155;49.940;8.450;2023-05-07T11:18:49;25.80;99.90
6244;DHT22;3155;49.940;8.450;2023-05-07T11:21:38;26.60;99.90
6244;DHT22;3155;49.940;8.450;2023-05-07T11:24:12;26.50;99.90
6244;DHT22;3155;49.940;8.450;2023-05-07T11:26:43;25.80;99.90
6244;DHT22;3155;49.940;8.450;2023-05-07T11:29:19;26.10;99.90
6244;DHT22;3155;49.940;8.450;2023-05-07T11:31:53;25.80;99.90
6244;DHT22;3155;49.940;8.450;2023-05-07T11:34:24;26.00;99.90
6244;DHT22;3155;49.940;8.450;2023-05-07T11:36:52;25.40;99.90
6244;DHT22;3155;49.940;8.450;2023-05-07T11:39:30;24.50;99.90
6244;DHT22;3155;49.940;8.450;2023-05-07T11:42:00;24.30;99.90
6244;DHT22;3155;49.940;8.450;2023-05-07T11:44:43;24.80;99.90
6244;DHT22;3155;49.940;8.450;2023-05-07T11:47:11;24.90;99.90
6244;DHT22;3155;49.940;8.450;2023-05-07T11:49:38;25.50;99.90
6244;DHT22;3155;49.940;8.450;2023-05-07T11:52:07;25.00;99.90
6244;DHT22;3155;49.940;8.450;2023-05-07T11:54:37;25.30;99.90
6244;DHT22;3155;49.940;8.450;2023-05-07T11:57:06;25.30;99.90
6244;DHT22;3155;49.940;8.450;2023-05-07T11:59:40;24.80;99.90
6244;DHT22;3155;49.940;8.450;2023-05-07T12:02:08;24.60;99.90
6244;DHT22;3155;49.940;8.450;2023-05-07T12:04:35;24.60;99.90
6244;DHT22;3155;49.940;8.450;2023-05-07T12:07:02;24.90;99.90
6244;DHT22;3155;49.940;8.450;2023-05-07T12:09:32;24.90;99.90
6244;DHT22;3155;49.940;8.450;2023-05-07T12:12:04;25.10;99.90
6244;DHT22;3155;49.940;8.450;2023-05-07T12:14:31;24.80;99.90
6244;DHT22;3155;49.940;8.450;2023-05-07T12:17:00;25.10;99.90
6244;DHT22;3155;49.940;8.450;2023-05-07T12:19:30;25.50;99.90
6244;DHT22;3155;49.940;8.450;2023-05-07T12:21:59;26.20;99.90
6244;DHT22;3155;49.940;8.450;2023-05-07T12:24:26;26.70;99.90
6244;DHT22;3155;49.940;8.450;2023-05-07T12:26:53;26.40;99.90
6244;DHT22;3155;49.940;8.450;2023-05-07T12:29:23;26.90;99.90
6244;DHT22;3155;49.940;8.450;2023-05-07T12:31:53;27.10;99.90
6244;DHT22;3155;49.940;8.450;2023-05-07T12:34:20;27.30;99.90
6244;DHT22;3155;49.940;8.450;2023-05-07T12:36:48;27.20;99.90
6244;DHT22;3155;49.940;8.450;2023-05-07T12:39:18;27.20;99.90
6244;DHT22;3155;49.940;8.450;2023-05-07T12:42:00;26.70;99.90
6244;DHT22;3155;49.940;8.450;2023-05-07T12:44:32;25.70;99.90
6244;DHT22;3155;49.940;8.450;2023-05-07T12:47:02;26.40;99.90
6244;DHT22;3155;49.940;8.450;2023-05-07T12:49:30;26.40;99.90
6244;DHT22;3155;49.940;8.450;2023-05-07T12:51:58;26.00;99.90
6244;DHT22;3155;49.940;8.450;2023-05-07T12:54:37;26.40;99.90
6244;DHT22;3155;49.940;8.450;2023-05-07T12:57:10;25.80;99.90
6244;DHT22;3155;49.940;8.450;2023-05-07T12:59:41;26.10;99.90
6244;DHT22;3155;49.940;8.450;2023-05-07T13:02:09;25.70;99.90
6244;DHT22;3155;49.940;8.450;2023-05-07T13:04:36;25.70;99.90
6244;DHT22;3155;49.940;8.450;2023-05-07T13:07:03;26.30;99.90
6244;DHT22;3155;49.940;8.450;2023-05-07T13:09:31;26.30;99.90
6244;DHT22;3155;49.940;8.450;2023-05-07T13:11:57;26.80;99.90
6244;DHT22;3155;49.940;8.450;2023-05-07T13:14:27;27.00;99.90
6244;DHT22;3155;49.940;8.450;2023-05-07T13:16:54;27.50;99.90
6244;DHT22;3155;49.940;8.450;2023-05-07T13:19:21;27.50;99.90
6244;DHT22;3155;49.940;8.450;2023-05-07T13:21:51;27.60;99.90
6244;DHT22;3155;49.940;8.450;2023-05-07T13:24:17;28.00;99.90
6244;DHT22;3155;49.940;8.450;2023-05-07T13:26:44;28.10;99.90
6244;DHT22;3155;49.940;8.450;2023-05-07T13:29:11;28.50;99.90
6244;DHT22;3155;49.940;8.450;2023-05-07T13:31:38;29.10;99.90
6244;DHT22;3155;49.940;8.450;2023-05-07T13:34:10;28.90;99.90
6244;DHT22;3155;49.940;8.450;2023-05-07T13:36:36;28.90;99.90
6244;DHT22;3155;49.940;8.450;2023-05-07T13:39:06;29.60;99.90
6244;DHT22;3155;49.940;8.450;2023-05-07T13:41:33;30.10;99.90
6244;DHT22;3155;49.940;8.450;2023-05-07T13:44:00;30.50;99.90
6244;DHT22;3155;49.940;8.450;2023-05-07T13:46:26;30.40;99.90
6244;DHT22;3155;49.940;8.450;2023-05-07T13:48:53;29.60;99.90
6244;DHT22;3155;49.940;8.450;2023-05-07T13:51:20;28.60;99.90
6244;DHT22;3155;49.940;8.450;2023-05-07T13:53:48;29.80;99.90
6244;DHT22;3155;49.940;8.450;2023-05-07T13:56:14;30.20;99.90
6244;DHT22;3155;49.940;8.450;2023-05-07T13:58:44;29.80;99.90
6244;DHT22;3155;49.940;8.450;2023-05-07T14:01:25;28.80;99.90
6244;DHT22;3155;49.940;8.450;2023-05-07T14:03:56;29.20;99.90
6244;DHT22;3155;49.940;8.450;2023-05-07T14:06:25;29.40;99.90
6244;DHT22;3155;49.940;8.450;2023-05-07T14:08:51;29.40;99.90
6244;DHT22;3155;49.940;8.450;2023-05-07T14:11:18;28.30;99.90
6244;DHT22;3155;49.940;8.450;2023-05-07T14:13:45;27.80;99.90
6244;DHT22;3155;49.940;8.450;2023-05-07T14:16:11;28.00;99.90
6244;DHT22;3155;49.940;8.450;2023-05-07T14:18:38;26.90;99.90
6244;DHT22;3155;49.940;8.450;2023-05-07T14:21:07;26.40;99.90
6244;DHT22;3155;49.940;8.450;2023-05-07T14:23:36;26.10;99.90
6244;DHT22;3155;49.940;8.450;2023-05-07T14:26:08;26.50;99.90
6244;DHT22;3155;49.940;8.450;2023-05-07T14:28:35;26.60;99.90
6244;DHT22;3155;49.940;8.450;2023-05-07T14:31:01;26.60;99.90
6244;DHT22;3155;49.940;8.450;2023-05-07T14:33:28;26.70;99.90
6244;DHT22;3155;49.940;8.450;2023-05-07T14:35:55;26.70;99.90
6244;DHT22;3155;49.940;8.450;2023-05-07T14:38:21;26.40;99.90
6244;DHT22;3155;49.940;8.450;2023-05-07T14:40:48;26.00;99.90
6244;DHT22;3155;49.940;8.450;2023-05-07T14:43:15;26.10;99.90
6244;DHT22;3155;49.940;8.450;2023-05-07T14:45:41;26.10;99.90
6244;DHT22;3155;49.940;8.450;2023-05-07T14:48:08;26.30;99.90
6244;DHT22;3155;49.940;8.450;2023-05-07T14:50:38;25.90;99.90
6244;DHT22;3155;49.940;8.450;2023-05-07T14:53:05;25.40;99.90
6244;DHT22;3155;49.940;8.450;2023-05-07T14:55:33;25.60;99.90
6244;DHT22;3155;49.940;8.450;2023-05-07T14:58:01;25.70;99.90
6244;DHT22;3155;49.940;8.450;2023-05-07T15:00:28;25.80;99.90
6244;DHT22;3155;49.940;8.450;2023-05-07T15:03:05;25.70;99.90
6244;DHT22;3155;49.940;8.450;2023-05-07T15:05:33;25.60;99.90
6244;DHT22;3155;49.940;8.450;2023-05-07T15:08:03;25.50;99.90
6244;DHT22;3155;49.940;8.450;2023-05-07T15:10:29;25.40;99.90
6244;DHT22;3155;49.940;8.450;2023-05-07T15:12:56;25.20;99.90
6244;DHT22;3155;49.940;8.450;2023-05-07T15:15:23;25.00;99.90
6244;DHT22;3155;49.940;8.450;2023-05-07T15:17:49;24.80;99.90
6244;DHT22;3155;49.940;8.450;2023-05-07T15:20:17;24.60;99.90
6244;DHT22;3155;49.940;8.450;2023-05-07T15:22:44;24.50;99.90
6244;DHT22;3155;49.940;8.450;2023-05-07T15:25:14;24.40;99.90
6244;DHT22;3155;49.940;8.450;2023-05-07T15:27:41;24.30;99.90
6244;DHT22;3155;49.940;8.450;2023-05-07T15:30:08;24.20;99.90
6244;DHT22;3155;49.940;8.450;2023-05-07T15:32:37;24.20;99.90
6244;DHT22;3155;49.940;8.450;2023-05-07T15:35:05;24.10;99.90
6244;DHT22;3155;49.940;8.450;2023-05-07T15:37:34;24.00;99.90
6244;DHT22;3155;49.940;8.450;2023-05-07T15:40:01;23.80;99.90
6244;DHT22;3155;49.940;8.450;2023-05-07T15:42:28;23.80;99.90
6244;DHT22;3155;49.940;8.450;2023-05-07T15:44:55;23.70;99.90
6244;DHT22;3155;49.940;8.450;2023-05-07T15:47:22;23.60;99.90
6244;DHT22;3155;49.940;8.450;2023-05-07T15:49:49;23.50;99.90
6244;DHT22;3155;49.940;8.450;2023-05-07T15:52:16;23.50;99.90
6244;DHT22;3155;49.940;8.450;2023-05-07T15:54:43;23.50;99.90
6244;DHT22;3155;49.940;8.450;2023-05-07T15:57:09;23.50;99.90
6244;DHT22;3155;49.940;8.450;2023-05-07T15:59:37;23.40;99.90
6244;DHT22;3155;49.940;8.450;2023-05-07T16:02:03;23.40;99.90
6244;DHT22;3155;49.940;8.450;2023-05-07T16:04:30;23.30;99.90
6244;DHT22;3155;49.940;8.450;2023-05-07T16:06:57;22.90;99.90
6244;DHT22;3155;49.940;8.450;2023-05-07T16:09:24;21.40;99.90
6244;DHT22;3155;49.940;8.450;2023-05-07T16:11:51;20.40;99.90
6244;DHT22;3155;49.940;8.450;2023-05-07T16:14:18;19.30;1.00
6244;DHT22;3155;49.940;8.450;2023-05-07T16:16:44;18.50;99.90
6244;DHT22;3155;49.940;8.450;2023-05-07T16:19:11;17.70;99.90
6244;DHT22;3155;49.940;8.450;2023-05-07T16:21:38;17.30;99.90
6244;DHT22;3155;49.940;8.450;2023-05-07T16:24:05;17.10;1.00